createdAt,value
2023-04-30T00:00:45.010Z,8.6889
2023-04-30T00:01:45.073Z,8.4263
2023-04-30T00:02:48.289Z,8.2889
2023-04-30T00:03:48.379Z,8.4368
2023-04-30T00:04:48.396Z,8.3722
2023-04-30T00:05:48.389Z,8.2889
2023-04-30T00:06:51.580Z,8.3556
2023-04-30T00:07:54.755Z,8.3895
2023-04-30T00:08:57.941Z,8.6789
2023-04-30T00:09:57.923Z,8.1316
2023-04-30T00:11:01.101Z,8.0778
2023-04-30T00:12:01.116Z,8.1789
2023-04-30T00:13:04.333Z,8.0389
2023-04-30T00:14:04.294Z,8.6053
2023-04-30T00:15:07.529Z,8.6444
2023-04-30T00:16:07.503Z,8.1895
2023-04-30T00:17:10.718Z,8.4167
2023-04-30T00:18:10.723Z,8.4000
2023-04-30T00:19:10.715Z,8.2611
2023-04-30T00:20:10.708Z,8.3889
2023-04-30T00:21:10.689Z,8.8444
2023-04-30T00:22:10.687Z,8.5833
2023-04-30T00:23:13.858Z,9.0278
2023-04-30T00:24:13.841Z,8.6316
2023-04-30T00:25:17.061Z,8.7944
2023-04-30T00:26:17.002Z,8.7789
2023-04-30T00:27:20.237Z,9.0833
2023-04-30T00:28:23.391Z,9.2737
2023-04-30T00:29:23.401Z,9.0842
2023-04-30T00:30:26.588Z,8.5389
2023-04-30T00:31:26.594Z,8.9842
2023-04-30T00:32:26.594Z,8.6944
2023-04-30T00:33:29.750Z,8.3611
2023-04-30T00:34:29.715Z,9.2053
2023-04-30T00:35:29.717Z,8.6389
2023-04-30T00:36:32.913Z,8.7500
2023-04-30T00:37:32.916Z,9.4053
2023-04-30T00:38:36.093Z,9.3056
2023-04-30T00:39:39.302Z,9.0684
2023-04-30T00:40:39.273Z,9.3105
2023-04-30T00:41:42.511Z,9.6333
2023-04-30T00:42:42.468Z,9.8000
2023-04-30T00:43:45.692Z,9.5889
2023-04-30T00:44:45.657Z,9.4947
2023-04-30T00:45:48.885Z,9.3611
2023-04-30T00:46:48.843Z,9.1947
2023-04-30T00:47:52.047Z,9.7667
2023-04-30T00:48:55.188Z,9.0368
2023-04-30T00:49:58.487Z,9.2368
2023-04-30T00:50:58.445Z,9.6789
2023-04-30T00:51:58.398Z,9.2389
2023-04-30T00:53:01.607Z,9.1111
2023-04-30T00:54:01.584Z,9.2526
2023-04-30T00:55:01.588Z,8.9278
2023-04-30T00:56:01.612Z,9.3944
2023-04-30T00:57:01.646Z,9.0500
2023-04-30T00:58:01.623Z,8.7611
2023-04-30T00:59:01.570Z,10.6778
2023-04-30T01:00:01.596Z,9.6944
2023-04-30T01:01:04.775Z,9.3056
2023-04-30T01:02:07.952Z,9.4895
2023-04-30T01:03:08.149Z,9.7421
2023-04-30T01:04:09.203Z,9.3667
2023-04-30T01:05:12.370Z,9.5611
2023-04-30T01:06:15.617Z,9.6316
2023-04-30T01:07:18.759Z,9.9105
2023-04-30T01:08:18.762Z,9.1053
2023-04-30T01:09:18.756Z,9.7889
2023-04-30T01:10:18.778Z,9.7444
2023-04-30T01:11:21.991Z,9.8944
2023-04-30T01:12:22.000Z,9.4579
2023-04-30T01:13:22.011Z,9.9889
2023-04-30T01:14:25.153Z,9.6167
2023-04-30T01:15:28.323Z,9.8737
2023-04-30T01:16:31.579Z,9.4053
2023-04-30T01:17:31.608Z,10.0000
2023-04-30T01:18:34.865Z,9.7333
2023-04-30T01:19:34.840Z,9.7895
2023-04-30T01:20:34.861Z,10.1111
2023-04-30T01:21:34.843Z,10.0778
2023-04-30T01:22:38.038Z,10.2278
2023-04-30T01:23:38.023Z,9.9684
2023-04-30T01:24:41.212Z,10.2889
2023-04-30T01:25:41.249Z,10.3579
2023-04-30T01:26:41.186Z,9.8500
2023-04-30T01:27:44.370Z,9.4667
2023-04-30T01:28:47.571Z,9.7263
2023-04-30T01:29:47.581Z,9.5263
2023-04-30T01:30:50.784Z,9.5111
2023-04-30T01:31:50.908Z,9.7421
2023-04-30T01:32:51.078Z,9.5222
2023-04-30T01:33:51.007Z,9.7056
2023-04-30T01:34:54.171Z,9.6667
2023-04-30T01:35:54.264Z,9.1158
2023-04-30T01:36:54.228Z,9.7556
2023-04-30T01:37:54.207Z,9.1722
2023-04-30T01:38:57.424Z,8.7889
2023-04-30T01:39:57.579Z,9.3053
2023-04-30T01:40:57.568Z,9.2278
2023-04-30T01:41:57.555Z,9.7000
2023-04-30T01:43:00.782Z,9.3833
2023-04-30T01:44:00.807Z,9.8158
2023-04-30T01:45:00.793Z,9.8722
2023-04-30T01:46:03.983Z,9.8500
2023-04-30T01:47:07.202Z,9.4684
2023-04-30T01:48:07.238Z,9.4053
2023-04-30T01:49:07.167Z,9.4333
2023-04-30T01:50:10.353Z,9.2056
2023-04-30T01:51:13.519Z,9.0211
2023-04-30T01:52:16.725Z,9.2842
2023-04-30T01:53:16.710Z,9.8474
2023-04-30T01:54:16.695Z,8.9778
2023-04-30T01:55:19.873Z,9.3667
2023-04-30T01:56:23.060Z,10.0000
2023-04-30T01:57:23.048Z,9.8263
2023-04-30T01:58:26.270Z,9.5000
2023-04-30T01:59:26.286Z,9.9632
2023-04-30T02:00:29.458Z,9.7167
2023-04-30T02:01:29.472Z,9.3105
2023-04-30T02:02:32.690Z,9.0833
2023-04-30T02:03:32.680Z,9.2895
2023-04-30T02:04:32.672Z,9.8889
2023-04-30T02:05:35.866Z,9.8278
2023-04-30T02:06:35.912Z,9.3421
2023-04-30T02:07:35.899Z,9.1278
2023-04-30T02:08:39.147Z,9.4111
2023-04-30T02:09:39.121Z,8.8632
2023-04-30T02:10:42.300Z,9.0778
2023-04-30T02:11:42.289Z,9.6053
2023-04-30T02:12:42.342Z,9.3056
2023-04-30T02:13:42.299Z,9.4778
2023-04-30T02:14:42.293Z,9.2222
2023-04-30T02:15:42.332Z,9.2056
2023-04-30T02:16:42.472Z,9.0944
2023-04-30T02:17:42.519Z,8.9278
2023-04-30T02:18:45.767Z,9.6222
2023-04-30T02:19:45.733Z,9.4316
2023-04-30T02:20:45.727Z,8.8111
2023-04-30T02:21:48.886Z,8.9722
2023-04-30T02:22:52.114Z,9.0579
2023-04-30T02:23:52.125Z,9.5947
2023-04-30T02:24:52.154Z,8.8389
2023-04-30T02:25:52.109Z,9.2556
2023-04-30T02:26:52.123Z,8.8389
2023-04-30T02:27:52.106Z,9.0111
2023-04-30T02:28:55.293Z,9.0444
2023-04-30T02:29:58.467Z,9.6368
2023-04-30T02:30:58.505Z,9.5000
2023-04-30T02:31:58.556Z,9.0000
2023-04-30T02:32:58.561Z,8.7556
2023-04-30T02:34:01.724Z,8.9278
2023-04-30T02:35:01.704Z,9.3368
2023-04-30T02:36:04.911Z,8.9778
2023-04-30T02:37:04.901Z,8.4684
2023-04-30T02:38:08.079Z,9.0611
2023-04-30T02:39:08.129Z,8.8632
2023-04-30T02:40:08.084Z,9.4333
2023-04-30T02:41:11.283Z,9.3667
2023-04-30T02:42:14.437Z,8.8895
2023-04-30T02:43:17.652Z,9.2737
2023-04-30T02:44:17.630Z,9.2947
2023-04-30T02:45:20.804Z,9.1833
2023-04-30T02:46:20.926Z,9.3211
2023-04-30T02:47:20.882Z,8.8833
2023-04-30T02:48:20.866Z,9.0333
2023-04-30T02:49:24.070Z,8.7889
2023-04-30T02:50:27.228Z,9.2947
2023-04-30T02:51:30.449Z,9.2474
2023-04-30T02:52:30.432Z,9.4842
2023-04-30T02:53:33.620Z,9.1444
2023-04-30T02:54:33.603Z,9.2526
2023-04-30T02:55:36.825Z,8.6944
2023-04-30T02:56:36.829Z,8.5211
2023-04-30T02:57:39.994Z,9.1056
2023-04-30T02:58:39.979Z,8.9895
2023-04-30T02:59:43.218Z,8.9278
2023-04-30T03:00:43.154Z,9.2368
2023-04-30T03:01:46.421Z,9.0222
2023-04-30T03:02:46.464Z,8.7158
2023-04-30T03:03:46.520Z,8.8500
2023-04-30T03:04:49.712Z,8.8444
2023-04-30T03:05:49.696Z,8.4947
2023-04-30T03:06:52.905Z,8.1000
2023-04-30T03:07:52.912Z,8.4421
2023-04-30T03:08:56.104Z,9.0611
2023-04-30T03:09:56.347Z,9.0053
2023-04-30T03:10:56.369Z,8.8389
2023-04-30T03:11:56.399Z,8.4056
2023-04-30T03:12:56.380Z,8.8500
2023-04-30T03:13:59.567Z,8.7222
2023-04-30T03:14:59.561Z,8.8895
2023-04-30T03:16:02.853Z,8.9833
2023-04-30T03:17:02.792Z,8.6316
2023-04-30T03:18:06.044Z,9.0944
2023-04-30T03:19:06.071Z,8.8368
2023-04-30T03:20:06.017Z,9.0222
2023-04-30T03:21:06.003Z,8.8444
2023-04-30T03:22:09.181Z,8.9667
2023-04-30T03:23:09.170Z,8.8789
2023-04-30T03:24:09.164Z,9.2889
2023-04-30T03:25:12.354Z,9.4278
2023-04-30T03:26:15.541Z,9.4526
2023-04-30T03:27:18.716Z,9.3211
2023-04-30T03:28:18.701Z,8.5579
2023-04-30T03:29:21.884Z,9.2389
2023-04-30T03:30:25.070Z,9.1368
2023-04-30T03:31:28.286Z,9.2263
2023-04-30T03:32:31.504Z,9.0421
2023-04-30T03:33:31.475Z,9.0211
2023-04-30T03:34:34.615Z,8.7111
2023-04-30T03:35:34.650Z,9.1421
2023-04-30T03:36:34.657Z,8.5722
2023-04-30T03:37:37.828Z,9.2833
2023-04-30T03:38:40.995Z,9.0526
2023-04-30T03:39:44.192Z,9.4368
2023-04-30T03:40:44.173Z,8.8368
2023-04-30T03:41:47.372Z,9.5778
2023-04-30T03:42:51.415Z,9.4526
2023-04-30T03:43:51.493Z,8.8368
2023-04-30T03:44:51.510Z,8.6667
2023-04-30T03:45:51.499Z,8.6333
2023-04-30T03:46:51.466Z,8.4611
2023-04-30T03:47:51.525Z,8.7333
2023-04-30T03:48:54.675Z,8.7778
2023-04-30T03:49:55.003Z,9.0632
2023-04-30T03:50:55.311Z,9.2833
2023-04-30T03:51:58.517Z,9.3444
2023-04-30T03:53:01.646Z,9.1632
2023-04-30T03:54:01.705Z,9.3474
2023-04-30T03:55:01.677Z,11.0611
2023-04-30T03:56:01.673Z,9.8833
2023-04-30T03:57:01.668Z,9.5222
2023-04-30T03:58:01.663Z,9.0722
2023-04-30T03:59:04.841Z,9.4500
2023-04-30T04:00:04.814Z,8.9632
2023-04-30T04:01:08.054Z,9.0278
2023-04-30T04:02:08.115Z,9.7263
2023-04-30T04:03:08.094Z,8.8944
2023-04-30T04:04:11.266Z,9.3778
2023-04-30T04:05:14.416Z,8.9684
2023-04-30T04:06:17.691Z,8.8842
2023-04-30T04:07:17.628Z,8.9211
2023-04-30T04:08:20.801Z,9.4278
2023-04-30T04:09:23.997Z,9.3579
2023-04-30T04:10:23.990Z,9.3632
2023-04-30T04:11:27.166Z,8.8389
2023-04-30T04:12:30.339Z,9.8632
2023-04-30T04:13:33.562Z,9.7316
2023-04-30T04:14:33.601Z,9.6526
2023-04-30T04:15:36.774Z,10.4389
2023-04-30T04:16:36.846Z,9.2421
2023-04-30T04:17:36.884Z,9.7222
2023-04-30T04:18:36.885Z,9.4444
2023-04-30T04:19:40.082Z,9.4556
2023-04-30T04:20:43.304Z,8.9526
2023-04-30T04:21:43.251Z,9.9842
2023-04-30T04:22:46.502Z,9.8500
2023-04-30T04:23:46.491Z,9.5684
2023-04-30T04:24:46.471Z,10.0111
2023-04-30T04:25:49.748Z,9.5833
2023-04-30T04:26:49.688Z,9.7211
2023-04-30T04:27:49.803Z,9.9500
2023-04-30T04:28:49.775Z,9.6833
2023-04-30T04:29:53.074Z,9.8667
2023-04-30T04:30:53.066Z,9.7105
2023-04-30T04:31:56.303Z,9.7778
2023-04-30T04:32:56.412Z,9.0000
2023-04-30T04:33:56.401Z,9.6111
2023-04-30T04:34:56.364Z,9.2889
2023-04-30T04:35:59.557Z,9.7611
2023-04-30T04:36:59.541Z,9.1579
2023-04-30T04:37:59.607Z,9.7667
2023-04-30T04:38:59.582Z,9.7333
2023-04-30T04:40:02.776Z,9.6778
2023-04-30T04:41:02.789Z,9.9263
2023-04-30T04:42:05.957Z,9.2556
2023-04-30T04:43:05.951Z,9.6579
2023-04-30T04:44:05.940Z,9.6056
2023-04-30T04:45:09.114Z,9.8167
2023-04-30T04:46:14.393Z,10.0000
2023-04-30T04:47:14.421Z,10.0789
2023-04-30T04:48:17.642Z,9.0889
2023-04-30T04:49:17.660Z,9.9316
2023-04-30T04:50:20.833Z,9.3667
2023-04-30T04:51:20.889Z,9.5526
2023-04-30T04:52:24.039Z,9.5611
2023-04-30T04:53:24.035Z,9.9684
2023-04-30T04:54:27.329Z,10.2056
2023-04-30T04:55:27.233Z,9.7842
2023-04-30T04:56:30.502Z,9.6611
2023-04-30T04:57:30.467Z,9.6316
2023-04-30T04:58:30.469Z,9.4444
2023-04-30T04:59:33.672Z,9.9111
2023-04-30T05:00:33.694Z,9.3316
2023-04-30T05:01:33.699Z,11.0556
2023-04-30T05:02:36.928Z,9.9722
2023-04-30T05:03:37.114Z,9.8579
2023-04-30T05:04:37.146Z,10.0333
2023-04-30T05:05:37.114Z,9.8778
2023-04-30T05:06:40.402Z,10.2222
2023-04-30T05:07:40.378Z,10.4316
2023-04-30T05:08:40.452Z,10.0333
2023-04-30T05:09:40.416Z,10.4667
2023-04-30T05:10:40.493Z,10.6278
2023-04-30T05:11:40.460Z,10.6722
2023-04-30T05:12:43.683Z,10.1944
2023-04-30T05:13:43.686Z,10.3842
2023-04-30T05:14:46.897Z,10.2111
2023-04-30T05:15:46.937Z,9.8421
2023-04-30T05:16:47.119Z,9.7111
2023-04-30T05:17:47.125Z,10.0944
2023-04-30T05:18:50.298Z,9.7111
2023-04-30T05:19:50.288Z,10.3579
2023-04-30T05:20:50.284Z,9.4222
2023-04-30T05:21:50.267Z,9.8333
2023-04-30T05:22:50.273Z,9.4389
2023-04-30T05:23:53.463Z,9.3111
2023-04-30T05:24:56.666Z,9.5158
2023-04-30T05:25:56.671Z,9.3105
2023-04-30T05:26:56.695Z,9.8556
2023-04-30T05:27:56.624Z,9.7556
2023-04-30T05:28:56.646Z,9.6167
2023-04-30T05:29:59.816Z,9.5000
2023-04-30T05:30:59.829Z,9.7842
2023-04-30T05:32:03.188Z,10.0889
2023-04-30T05:33:03.222Z,9.8263
2023-04-30T05:34:03.172Z,9.6000
2023-04-30T05:35:06.372Z,9.3611
2023-04-30T05:36:06.398Z,9.4105
2023-04-30T05:37:09.611Z,9.4944
2023-04-30T05:38:09.609Z,9.4947
2023-04-30T05:39:12.924Z,9.4444
2023-04-30T05:40:12.869Z,9.6474
2023-04-30T05:41:12.842Z,9.4278
2023-04-30T05:42:12.824Z,10.2722
2023-04-30T05:43:16.009Z,9.3000
2023-04-30T05:44:19.224Z,8.9947
2023-04-30T05:45:19.218Z,9.3053
2023-04-30T05:46:22.481Z,9.2778
2023-04-30T05:47:22.414Z,9.2263
2023-04-30T05:48:22.419Z,9.3889
2023-04-30T05:49:25.610Z,8.8056
2023-04-30T05:50:25.586Z,8.3579
2023-04-30T05:51:28.794Z,9.0056
2023-04-30T05:52:28.803Z,8.5895
2023-04-30T05:53:31.993Z,9.1222
2023-04-30T05:54:32.146Z,8.5737
2023-04-30T05:55:32.064Z,8.8833
2023-04-30T05:56:35.270Z,8.7222
2023-04-30T05:57:38.465Z,8.5421
2023-04-30T05:58:38.467Z,9.0526
2023-04-30T05:59:38.472Z,8.5889
2023-04-30T06:00:41.660Z,8.8389
2023-04-30T06:01:41.693Z,8.6737
2023-04-30T06:02:44.898Z,9.3000
2023-04-30T06:03:44.835Z,8.8053
2023-04-30T06:04:44.931Z,8.6444
2023-04-30T06:05:44.980Z,8.4667
2023-04-30T06:06:45.016Z,8.5444
2023-04-30T06:07:45.078Z,8.7389
2023-04-30T06:08:48.243Z,9.0556
2023-04-30T06:09:51.428Z,8.9368
2023-04-30T06:10:54.614Z,8.9579
2023-04-30T06:11:54.579Z,8.4211
2023-04-30T06:12:54.602Z,8.8556
2023-04-30T06:13:57.755Z,9.5278
2023-04-30T06:14:57.771Z,8.7000
2023-04-30T06:16:00.958Z,8.7222
2023-04-30T06:17:04.162Z,9.1895
2023-04-30T06:18:07.364Z,9.3211
2023-04-30T06:19:07.322Z,8.6947
2023-04-30T06:20:07.334Z,8.5833
2023-04-30T06:21:10.498Z,8.6222
2023-04-30T06:22:13.684Z,8.5947
2023-04-30T06:23:16.876Z,8.5474
2023-04-30T06:24:20.035Z,8.6211
2023-04-30T06:25:20.059Z,8.6421
2023-04-30T06:26:20.024Z,8.8556
2023-04-30T06:27:23.255Z,8.8056
2023-04-30T06:28:23.206Z,8.5579
2023-04-30T06:29:26.406Z,8.5500
2023-04-30T06:30:26.387Z,8.6684
2023-04-30T06:31:29.591Z,8.4556
2023-04-30T06:32:29.574Z,8.0105
2023-04-30T06:33:32.789Z,8.1444
2023-04-30T06:34:32.771Z,8.7947
2023-04-30T06:35:35.965Z,8.2944
2023-04-30T06:36:35.945Z,8.5158
2023-04-30T06:37:39.165Z,8.8500
2023-04-30T06:38:39.130Z,8.5158
2023-04-30T06:39:42.316Z,8.7056
2023-04-30T06:40:42.334Z,8.7158
2023-04-30T06:41:45.527Z,8.8333
2023-04-30T06:42:47.503Z,8.4789
2023-04-30T06:43:47.707Z,8.7333
2023-04-30T06:44:47.683Z,8.4889
2023-04-30T06:45:47.696Z,8.6389
2023-04-30T06:46:47.674Z,8.7778
2023-04-30T06:47:50.876Z,8.9222
2023-04-30T06:48:50.856Z,9.3737
2023-04-30T06:49:54.186Z,9.3500
2023-04-30T06:50:54.198Z,9.0684
2023-04-30T06:51:57.418Z,9.1056
2023-04-30T06:52:57.388Z,8.9895
2023-04-30T06:54:00.638Z,8.7444
2023-04-30T06:55:00.664Z,8.7737
2023-04-30T06:56:00.587Z,8.7556
2023-04-30T06:57:03.782Z,8.8889
2023-04-30T06:58:03.774Z,9.0263
2023-04-30T06:59:03.764Z,8.4167
2023-04-30T07:00:03.788Z,8.9333
2023-04-30T07:01:03.829Z,8.9056
2023-04-30T07:02:03.781Z,9.4444
2023-04-30T07:03:03.883Z,8.7167
2023-04-30T07:04:03.824Z,8.1167
2023-04-30T07:05:03.804Z,8.9056
2023-04-30T07:06:03.874Z,8.4944
2023-04-30T07:07:03.852Z,8.2722
2023-04-30T07:08:07.024Z,8.8833
2023-04-30T07:09:10.206Z,9.2421
2023-04-30T07:10:11.212Z,8.4316
2023-04-30T07:11:11.240Z,8.9667
2023-04-30T07:12:11.248Z,8.9111
2023-04-30T07:13:11.267Z,8.9222
2023-04-30T07:14:14.442Z,9.0333
2023-04-30T07:15:14.417Z,8.8211
2023-04-30T07:16:17.626Z,9.2111
2023-04-30T07:17:17.647Z,9.5421
2023-04-30T07:18:20.788Z,8.9889
2023-04-30T07:19:24.010Z,8.9737
2023-04-30T07:20:27.197Z,8.8789
2023-04-30T07:21:27.169Z,8.9579
2023-04-30T07:22:27.152Z,8.7278
2023-04-30T07:23:30.701Z,8.6611
2023-04-30T07:24:30.739Z,8.0368
2023-04-30T07:25:34.018Z,8.8000
2023-04-30T07:26:33.965Z,8.3632
2023-04-30T07:27:37.175Z,8.6167
2023-04-30T07:28:37.162Z,8.1684
2023-04-30T07:29:40.329Z,8.1556
2023-04-30T07:30:40.392Z,8.4158
2023-04-30T07:31:40.516Z,8.6111
2023-04-30T07:32:40.502Z,8.6278
2023-04-30T07:33:43.665Z,8.9111
2023-04-30T07:34:46.822Z,9.1263
2023-04-30T07:35:50.033Z,8.8368
2023-04-30T07:36:50.033Z,8.9474
2023-04-30T07:37:49.995Z,8.6611
2023-04-30T07:38:50.017Z,8.6722
2023-04-30T07:39:50.012Z,8.8111
2023-04-30T07:40:50.009Z,9.1611
2023-04-30T07:41:50.024Z,9.1056
2023-04-30T07:42:53.229Z,9.1056
2023-04-30T07:43:53.197Z,8.5579
2023-04-30T07:44:56.390Z,8.8111
2023-04-30T07:45:59.632Z,8.4368
2023-04-30T07:46:59.605Z,8.1895
2023-04-30T07:47:59.634Z,8.2833
2023-04-30T07:49:02.780Z,8.5167
2023-04-30T07:50:02.791Z,8.4211
2023-04-30T07:51:02.782Z,8.8389
2023-04-30T07:52:06.010Z,8.6056
2023-04-30T07:53:06.000Z,8.6263
2023-04-30T07:54:09.196Z,8.7111
2023-04-30T07:55:09.196Z,8.3000
2023-04-30T07:56:09.149Z,8.0444
2023-04-30T07:57:12.363Z,7.9222
2023-04-30T07:58:12.352Z,8.5526
2023-04-30T07:59:12.349Z,8.3778
2023-04-30T08:00:12.353Z,8.8944
2023-04-30T08:01:15.564Z,8.7444
2023-04-30T08:02:15.549Z,9.0263
2023-04-30T08:03:18.882Z,9.3722
2023-04-30T08:04:18.958Z,9.3000
2023-04-30T08:05:18.911Z,9.1389
2023-04-30T08:06:22.189Z,8.7389
2023-04-30T08:07:22.112Z,8.7526
2023-04-30T08:08:25.275Z,8.6944
2023-04-30T08:09:25.300Z,9.7316
2023-04-30T08:10:25.282Z,9.5611
2023-04-30T08:11:28.510Z,8.5667
2023-04-30T08:12:28.461Z,8.7526
2023-04-30T08:13:31.710Z,8.6556
2023-04-30T08:14:31.641Z,8.3474
2023-04-30T08:15:34.833Z,8.4722
2023-04-30T08:16:34.832Z,8.2526
2023-04-30T08:17:38.085Z,8.5333
2023-04-30T08:18:38.040Z,9.4053
2023-04-30T08:19:41.267Z,9.4556
2023-04-30T08:20:41.263Z,9.4842
2023-04-30T08:21:44.437Z,8.7944
2023-04-30T08:22:47.615Z,9.0421
2023-04-30T08:23:50.832Z,8.9263
2023-04-30T08:24:50.817Z,9.1474
2023-04-30T08:25:54.006Z,8.8000
2023-04-30T08:26:54.917Z,8.6789
2023-04-30T08:27:54.936Z,8.9056
2023-04-30T08:28:54.906Z,8.6000
2023-04-30T08:29:58.108Z,9.1056
2023-04-30T08:30:58.145Z,8.7105
2023-04-30T08:31:58.311Z,8.5056
2023-04-30T08:32:58.360Z,8.2944
2023-04-30T08:33:58.365Z,8.7000
2023-04-30T08:34:58.375Z,8.4500
2023-04-30T08:35:58.395Z,8.7111
2023-04-30T08:36:58.429Z,8.1056
2023-04-30T08:37:58.460Z,8.2500
2023-04-30T08:38:58.611Z,8.2167
2023-04-30T08:39:58.568Z,8.3889
2023-04-30T08:40:58.594Z,8.2389
2023-04-30T08:41:58.651Z,8.6278
2023-04-30T08:42:58.666Z,8.5833
2023-04-30T08:43:58.713Z,8.3944
2023-04-30T08:44:58.772Z,8.5944
2023-04-30T08:45:58.797Z,8.2333
2023-04-30T08:46:58.782Z,8.2000
2023-04-30T08:47:58.864Z,8.7000
2023-04-30T08:48:58.845Z,8.4722
2023-04-30T08:49:58.879Z,8.2167
2023-04-30T08:50:59.026Z,8.3944
2023-04-30T08:51:59.115Z,9.0556
2023-04-30T08:52:59.172Z,8.8833
2023-04-30T08:53:59.169Z,8.4167
2023-04-30T08:54:59.181Z,8.4389
2023-04-30T08:55:59.202Z,8.6944
2023-04-30T08:56:59.237Z,8.2722
2023-04-30T08:57:59.324Z,8.0444
2023-04-30T08:58:59.306Z,8.3500
2023-04-30T08:59:59.361Z,8.3500
2023-04-30T09:00:59.395Z,8.1722
2023-04-30T09:01:59.442Z,8.4833
2023-04-30T09:02:59.592Z,8.3389
2023-04-30T09:03:59.803Z,8.4444
2023-04-30T09:05:00.820Z,7.8500
2023-04-30T09:06:00.869Z,8.5000
2023-04-30T09:07:02.329Z,8.7500
2023-04-30T09:08:04.036Z,8.5778
2023-04-30T09:09:04.230Z,8.6471
2023-04-30T09:10:04.246Z,8.5389
2023-04-30T09:11:04.286Z,8.6889
2023-04-30T09:12:04.293Z,8.3611
2023-04-30T09:13:04.340Z,8.5278
2023-04-30T09:14:04.448Z,8.2944
2023-04-30T09:15:04.458Z,8.4167
2023-04-30T09:16:04.618Z,8.0611
2023-04-30T09:17:04.643Z,7.9389
2023-04-30T09:18:04.690Z,7.7167
2023-04-30T09:19:04.675Z,7.7111
2023-04-30T09:20:04.685Z,8.3333
2023-04-30T09:21:05.801Z,8.5167
2023-04-30T09:22:05.851Z,7.9778
2023-04-30T09:23:05.895Z,8.5111
2023-04-30T09:24:05.907Z,8.5667
2023-04-30T09:25:05.919Z,8.6222
2023-04-30T09:26:05.948Z,8.4778
2023-04-30T09:27:05.997Z,8.5000
2023-04-30T09:28:06.068Z,7.8611
2023-04-30T09:29:06.078Z,8.1556
2023-04-30T09:30:06.129Z,8.0222
2023-04-30T09:31:06.213Z,8.1278
2023-04-30T09:32:06.187Z,7.7722
2023-04-30T09:33:07.001Z,7.9167
2023-04-30T09:34:08.573Z,8.1278
2023-04-30T09:35:08.601Z,8.2056
2023-04-30T09:36:08.616Z,8.4944
2023-04-30T09:37:08.633Z,8.3278
2023-04-30T09:38:08.677Z,8.3222
2023-04-30T09:39:10.312Z,8.2667
2023-04-30T09:40:11.468Z,8.8111
2023-04-30T09:41:11.493Z,8.2500
2023-04-30T09:42:11.514Z,8.0778
2023-04-30T09:43:11.514Z,8.3111
2023-04-30T09:44:11.536Z,7.9944
2023-04-30T09:45:11.629Z,8.1556
2023-04-30T09:46:11.690Z,8.2167
2023-04-30T09:47:11.732Z,8.0611
2023-04-30T09:48:16.895Z,7.9667
2023-04-30T09:49:14.435Z,7.9111
2023-04-30T09:50:14.441Z,7.8706
2023-04-30T09:51:14.469Z,7.9444
2023-04-30T09:52:14.485Z,7.7833
2023-04-30T09:53:14.506Z,7.6389
2023-04-30T09:54:14.511Z,7.3556
2023-04-30T09:55:14.528Z,7.3833
2023-04-30T09:56:14.601Z,7.2500
2023-04-30T09:57:14.631Z,7.2167
2023-04-30T09:58:14.666Z,7.3111
2023-04-30T09:59:14.690Z,7.2722
2023-04-30T10:00:14.703Z,7.0167
2023-04-30T10:01:14.773Z,7.4944
2023-04-30T10:02:14.776Z,7.4778
2023-04-30T10:03:14.856Z,7.8278
2023-04-30T10:04:14.838Z,7.5500
2023-04-30T10:05:14.864Z,7.4833
2023-04-30T10:06:14.912Z,7.4333
2023-04-30T10:07:16.288Z,7.5611
2023-04-30T10:08:17.097Z,7.2667
2023-04-30T10:09:17.116Z,7.0778
2023-04-30T10:10:17.125Z,7.3222
2023-04-30T10:11:17.184Z,7.1278
2023-04-30T10:12:18.176Z,7.5222
2023-04-30T10:13:18.217Z,7.0333
2023-04-30T10:14:18.217Z,6.7500
2023-04-30T10:15:18.275Z,6.5778
2023-04-30T10:16:18.342Z,6.9000
2023-04-30T10:17:18.326Z,7.0778
2023-04-30T10:18:18.307Z,6.8278
2023-04-30T10:19:18.335Z,6.6667
2023-04-30T10:20:18.358Z,6.5611
2023-04-30T10:21:18.396Z,6.9778
2023-04-30T10:22:18.394Z,6.6111
2023-04-30T10:23:18.465Z,6.9722
2023-04-30T10:24:18.480Z,7.1056
2023-04-30T10:25:18.531Z,6.7944
2023-04-30T10:26:18.555Z,7.3056
2023-04-30T10:27:18.560Z,6.5722
2023-04-30T10:28:18.582Z,6.6944
2023-04-30T10:29:18.616Z,6.6056
2023-04-30T10:30:18.628Z,6.6500
2023-04-30T10:31:18.628Z,6.5556
2023-04-30T10:32:18.737Z,6.7833
2023-04-30T10:33:18.834Z,6.8722
2023-04-30T10:34:18.902Z,6.3111
2023-04-30T10:35:18.906Z,6.3778
2023-04-30T10:36:18.914Z,6.0722
2023-04-30T10:37:18.975Z,5.9556
2023-04-30T10:38:18.965Z,5.5833
2023-04-30T10:39:18.997Z,5.1722
2023-04-30T10:40:19.006Z,5.1222
2023-04-30T10:41:19.074Z,5.1389
2023-04-30T10:42:19.099Z,5.0833
2023-04-30T10:43:19.147Z,4.9000
2023-04-30T10:44:19.122Z,4.9389
2023-04-30T10:45:19.136Z,4.7778
2023-04-30T10:46:19.210Z,4.8222
2023-04-30T10:47:19.240Z,4.5500
2023-04-30T10:48:19.224Z,4.6778
2023-04-30T10:49:19.245Z,4.6167
2023-04-30T10:50:19.248Z,4.0278
2023-04-30T10:51:19.268Z,4.5056
2023-04-30T10:52:19.267Z,4.3278
2023-04-30T10:53:19.300Z,3.9500
2023-04-30T10:54:19.292Z,4.2000
2023-04-30T10:55:19.294Z,3.9167
2023-04-30T10:56:19.307Z,3.8722
2023-04-30T10:57:19.312Z,3.5167
2023-04-30T10:58:19.318Z,3.6833
2023-04-30T10:59:19.328Z,3.8500
2023-04-30T11:00:19.356Z,4.1722
2023-04-30T11:01:19.400Z,3.7556
2023-04-30T11:02:19.426Z,3.6889
2023-04-30T11:03:19.456Z,3.8611
2023-04-30T11:04:19.511Z,3.7167
2023-04-30T11:05:19.764Z,3.7000
2023-04-30T11:06:19.966Z,3.6444
2023-04-30T11:07:20.073Z,3.8111
2023-04-30T11:08:20.093Z,3.8556
2023-04-30T11:09:20.119Z,3.7611
2023-04-30T11:10:20.125Z,3.7833
2023-04-30T11:11:20.161Z,3.8833
2023-04-30T11:12:20.166Z,3.6222
2023-04-30T11:13:20.160Z,4.0333
2023-04-30T11:14:20.174Z,3.8833
2023-04-30T11:15:20.213Z,3.6778
2023-04-30T11:16:20.412Z,3.5444
2023-04-30T11:17:20.428Z,3.8056
2023-04-30T11:18:20.399Z,3.5667
2023-04-30T11:19:20.403Z,3.8500
2023-04-30T11:20:20.411Z,3.8444
2023-04-30T11:21:20.464Z,3.5333
2023-04-30T11:22:20.468Z,3.9667
2023-04-30T11:23:28.548Z,3.5389
2023-04-30T11:24:23.158Z,3.7500
2023-04-30T11:25:23.183Z,3.3765
2023-04-30T11:26:23.198Z,3.3556
2023-04-30T11:27:23.215Z,3.4389
2023-04-30T11:28:23.222Z,3.3722
2023-04-30T11:29:23.325Z,3.5111
2023-04-30T11:30:23.317Z,3.3333
2023-04-30T11:31:23.384Z,3.3333
2023-04-30T11:32:23.419Z,3.8833
2023-04-30T11:33:23.413Z,3.4444
2023-04-30T11:34:23.447Z,3.3167
2023-04-30T11:35:23.472Z,3.3278
2023-04-30T11:36:23.477Z,3.3167
2023-04-30T11:37:23.489Z,3.6167
2023-04-30T11:38:23.518Z,4.7111
2023-04-30T11:39:23.588Z,3.9778
2023-04-30T11:40:23.602Z,3.4167
2023-04-30T11:41:23.644Z,3.2056
2023-04-30T11:42:23.654Z,3.3444
2023-04-30T11:43:23.673Z,3.1889
2023-04-30T11:44:23.714Z,3.3778
2023-04-30T11:45:23.728Z,3.3556
2023-04-30T11:46:23.760Z,3.4778
2023-04-30T11:47:23.839Z,3.6500
2023-04-30T11:48:23.855Z,3.3944
2023-04-30T11:49:23.865Z,3.3278
2023-04-30T11:50:23.887Z,3.2667
2023-04-30T11:51:23.943Z,3.2056
2023-04-30T11:52:23.964Z,3.1500
2023-04-30T11:53:23.986Z,3.1444
2023-04-30T11:54:24.011Z,3.4556
2023-04-30T11:55:24.142Z,3.3222
2023-04-30T11:56:24.361Z,3.2556
2023-04-30T11:57:24.445Z,3.3000
2023-04-30T11:58:24.489Z,3.1222
2023-04-30T11:59:24.526Z,3.0944
2023-04-30T12:00:24.549Z,3.1056
2023-04-30T12:01:24.565Z,3.7722
2023-04-30T12:02:24.725Z,3.1833
2023-04-30T12:03:24.863Z,3.2500
2023-04-30T12:04:24.957Z,3.4278
2023-04-30T12:05:24.934Z,3.4611
2023-04-30T12:06:25.156Z,3.6278
2023-04-30T12:07:25.127Z,4.2000
2023-04-30T12:08:25.144Z,3.3667
2023-04-30T12:09:25.179Z,3.3833
2023-04-30T12:10:25.182Z,3.9278
2023-04-30T12:11:25.296Z,3.9167
2023-04-30T12:12:25.367Z,3.6056
2023-04-30T12:13:25.376Z,3.6056
2023-04-30T12:14:25.403Z,3.7111
2023-04-30T12:15:25.428Z,4.0778
2023-04-30T12:16:25.451Z,3.4444
2023-04-30T12:17:25.513Z,3.2222
2023-04-30T12:18:25.501Z,3.2056
2023-04-30T12:19:25.541Z,3.0056
2023-04-30T12:20:25.519Z,3.1556
2023-04-30T12:21:25.572Z,3.3333
2023-04-30T12:22:25.592Z,3.4500
2023-04-30T12:23:25.606Z,3.1500
2023-04-30T12:24:25.600Z,3.3444
2023-04-30T12:25:25.602Z,2.9556
2023-04-30T12:26:25.604Z,3.0222
2023-04-30T12:27:25.661Z,2.7667
2023-04-30T12:28:25.664Z,2.8833
2023-04-30T12:29:25.680Z,3.0833
2023-04-30T12:30:25.684Z,2.9222
2023-04-30T12:31:25.717Z,2.9778
2023-04-30T12:32:25.805Z,3.0000
2023-04-30T12:33:25.825Z,3.1278
2023-04-30T12:34:25.828Z,3.2611
2023-04-30T12:35:25.843Z,3.0944
2023-04-30T12:36:25.858Z,3.0389
2023-04-30T12:37:25.884Z,3.1278
2023-04-30T12:38:25.893Z,3.1556
2023-04-30T12:39:25.908Z,2.9389